createdAt,value
2018-07-31T00:02:27.046Z,42.00
2018-07-31T00:04:56.212Z,42.10
2018-07-31T00:07:25.453Z,42.10
2018-07-31T00:09:54.908Z,42.10
2018-07-31T00:12:24.213Z,42.00
2018-07-31T00:14:53.471Z,42.00
2018-07-31T00:17:22.697Z,42.10
2018-07-31T00:19:51.763Z,42.00
2018-07-31T00:22:21.050Z,42.10
2018-07-31T00:24:50.129Z,42.00
2018-07-31T00:27:19.401Z,42.20
2018-07-31T00:29:48.563Z,42.20
2018-07-31T00:32:17.902Z,42.20
2018-07-31T00:34:47.005Z,42.10
2018-07-31T00:37:16.037Z,42.10
2018-07-31T00:39:46.037Z,42.10
2018-07-31T00:42:15.151Z,42.10
2018-07-31T00:44:44.279Z,42.20
2018-07-31T00:47:13.453Z,42.20
2018-07-31T00:49:42.580Z,42.20
2018-07-31T00:52:11.964Z,42.10
2018-07-31T00:54:42.060Z,42.10
2018-07-31T00:57:11.352Z,42.20
2018-07-31T00:59:40.558Z,42.10
2018-07-31T01:02:09.830Z,42.20
2018-07-31T01:04:39.112Z,42.20
2018-07-31T01:07:08.245Z,42.20
2018-07-31T01:09:37.440Z,42.30
2018-07-31T01:12:06.713Z,42.20
2018-07-31T01:14:35.970Z,42.10
2018-07-31T01:17:05.045Z,42.20
2018-07-31T01:19:34.306Z,42.20
2018-07-31T01:22:03.399Z,42.20
2018-07-31T01:24:32.681Z,42.20
2018-07-31T01:27:01.930Z,42.20
2018-07-31T01:29:31.414Z,42.10
2018-07-31T01:32:00.621Z,42.10
2018-07-31T01:34:29.892Z,42.10
2018-07-31T01:36:59.054Z,42.20
2018-07-31T01:39:28.093Z,42.30
2018-07-31T01:41:57.417Z,42.20
2018-07-31T01:44:26.769Z,42.20
2018-07-31T01:46:56.112Z,42.20
2018-07-31T01:49:25.303Z,42.20
2018-07-31T01:51:54.570Z,42.20
2018-07-31T01:54:23.598Z,42.20
2018-07-31T01:56:52.970Z,42.30
2018-07-31T01:59:22.158Z,42.20
2018-07-31T02:01:51.479Z,42.20
2018-07-31T02:04:20.673Z,42.20
2018-07-31T02:06:49.913Z,42.20
2018-07-31T02:09:19.299Z,42.20
2018-07-31T02:11:48.470Z,42.20
2018-07-31T02:14:17.904Z,42.30
2018-07-31T02:16:47.149Z,42.20
2018-07-31T02:19:16.370Z,42.30
2018-07-31T02:21:45.467Z,42.30
2018-07-31T02:24:14.723Z,42.40
2018-07-31T02:26:44.070Z,42.40
2018-07-31T02:29:13.403Z,42.20
2018-07-31T02:31:42.765Z,42.20
2018-07-31T02:34:12.063Z,42.30
2018-07-31T02:36:41.284Z,42.40
2018-07-31T02:39:10.406Z,42.40
2018-07-31T02:41:39.652Z,42.30
2018-07-31T02:44:08.863Z,42.40
2018-07-31T02:46:38.051Z,42.40
2018-07-31T02:49:07.379Z,42.40
2018-07-31T02:51:36.606Z,42.30
2018-07-31T02:54:05.890Z,42.40
2018-07-31T02:56:35.078Z,42.30
2018-07-31T02:59:04.211Z,42.40
2018-07-31T03:01:33.477Z,42.30
2018-07-31T03:04:02.752Z,42.40
2018-07-31T03:06:31.852Z,42.30
2018-07-31T03:09:01.291Z,42.30
2018-07-31T03:11:30.541Z,42.30
2018-07-31T03:13:59.679Z,42.40
2018-07-31T03:16:28.850Z,42.40
2018-07-31T03:18:58.113Z,42.40
2018-07-31T03:21:27.477Z,42.40
2018-07-31T03:23:56.966Z,42.30
2018-07-31T03:26:26.248Z,42.30
2018-07-31T03:28:55.532Z,42.30
2018-07-31T03:31:24.681Z,42.40
2018-07-31T03:33:53.814Z,42.30
2018-07-31T03:36:22.953Z,42.40
2018-07-31T03:38:52.143Z,42.40
2018-07-31T03:41:21.392Z,42.30
2018-07-31T03:43:50.483Z,42.30
2018-07-31T03:46:19.585Z,42.40
2018-07-31T03:48:48.599Z,42.40
2018-07-31T03:51:17.881Z,42.90
2018-07-31T03:53:46.978Z,42.30
2018-07-31T03:56:16.307Z,42.40
2018-07-31T03:58:45.530Z,42.30
2018-07-31T04:01:14.763Z,42.40
2018-07-31T04:03:43.997Z,42.30
2018-07-31T04:06:13.286Z,42.30
2018-07-31T04:08:42.697Z,42.40
2018-07-31T04:11:11.965Z,42.30
2018-07-31T04:13:41.145Z,42.20
2018-07-31T04:16:10.355Z,42.30
2018-07-31T04:18:39.460Z,42.20
2018-07-31T04:21:08.782Z,42.30
2018-07-31T04:23:37.917Z,42.30
2018-07-31T04:26:06.914Z,42.30
2018-07-31T04:28:35.953Z,42.40
2018-07-31T04:31:05.109Z,42.30
2018-07-31T04:33:34.226Z,42.20
2018-07-31T04:36:03.669Z,42.10
2018-07-31T04:38:32.729Z,42.30
2018-07-31T04:41:01.894Z,42.20
2018-07-31T04:43:30.932Z,42.10
2018-07-31T04:46:00.129Z,42.20
2018-07-31T04:48:29.227Z,41.90
2018-07-31T04:50:58.374Z,42.10
2018-07-31T04:53:27.481Z,42.10
2018-07-31T04:55:56.646Z,42.00
2018-07-31T04:58:25.925Z,42.10
2018-07-31T05:00:54.967Z,42.10
2018-07-31T05:03:24.054Z,42.00
2018-07-31T05:05:53.074Z,42.00
2018-07-31T05:08:22.255Z,42.00
2018-07-31T05:10:51.313Z,41.90
2018-07-31T05:13:20.264Z,41.90
2018-07-31T05:15:49.409Z,41.80
2018-07-31T05:18:18.422Z,41.90
2018-07-31T05:20:47.544Z,41.90
2018-07-31T05:23:16.591Z,41.90
2018-07-31T05:25:45.693Z,41.90
2018-07-31T05:28:14.837Z,41.90
2018-07-31T05:30:43.984Z,41.90
2018-07-31T05:33:13.085Z,41.90
2018-07-31T05:35:42.230Z,41.90
2018-07-31T05:38:11.449Z,41.80
2018-07-31T05:40:40.553Z,41.70
2018-07-31T05:43:09.726Z,41.90
2018-07-31T05:45:38.872Z,41.60
2018-07-31T05:48:07.949Z,39.60
2018-07-31T05:50:37.237Z,41.90
2018-07-31T05:53:06.376Z,41.70
2018-07-31T05:55:35.523Z,42.30
2018-07-31T05:58:04.760Z,43.00
2018-07-31T06:00:34.047Z,43.50
2018-07-31T06:03:03.145Z,43.30
2018-07-31T06:05:32.216Z,44.40
2018-07-31T06:08:01.455Z,43.90
2018-07-31T06:10:30.618Z,43.90
2018-07-31T06:12:59.913Z,44.20
2018-07-31T06:15:29.124Z,45.00
2018-07-31T06:17:58.229Z,44.00
2018-07-31T06:20:27.424Z,44.20
2018-07-31T06:22:56.528Z,44.80
2018-07-31T06:25:25.691Z,44.10
2018-07-31T06:27:54.900Z,44.60
2018-07-31T06:30:23.983Z,44.70
2018-07-31T06:32:53.161Z,44.30
2018-07-31T06:35:22.316Z,43.70
2018-07-31T06:37:51.517Z,44.10
2018-07-31T06:40:20.669Z,43.90
2018-07-31T06:42:49.744Z,43.80
2018-07-31T06:45:18.959Z,42.80
2018-07-31T06:47:48.164Z,43.40
2018-07-31T06:50:17.446Z,42.80
2018-07-31T06:52:46.884Z,42.90
2018-07-31T06:55:16.086Z,42.90
2018-07-31T06:57:45.191Z,42.80
2018-07-31T07:00:14.253Z,42.70
2018-07-31T07:02:43.495Z,42.60
2018-07-31T07:05:12.741Z,42.50
2018-07-31T07:07:41.903Z,42.70
2018-07-31T07:10:11.105Z,42.30
2018-07-31T07:12:40.367Z,42.30
2018-07-31T07:15:10.519Z,42.70
2018-07-31T07:17:39.607Z,42.30
2018-07-31T07:20:08.732Z,42.40
2018-07-31T07:22:38.956Z,42.60
2018-07-31T07:25:08.185Z,42.50
2018-07-31T07:27:38.043Z,42.90
2018-07-31T07:30:07.878Z,42.50
2018-07-31T07:32:36.926Z,42.20
2018-07-31T07:35:06.096Z,42.50
2018-07-31T07:37:35.280Z,42.30
2018-07-31T07:40:04.569Z,42.00
2018-07-31T07:42:33.800Z,41.90
2018-07-31T07:45:03.353Z,41.60
2018-07-31T07:47:32.556Z,41.50
2018-07-31T07:50:01.758Z,41.70
2018-07-31T07:52:30.899Z,41.50
2018-07-31T07:55:00.060Z,40.70
2018-07-31T07:57:29.323Z,40.70
2018-07-31T07:59:58.707Z,41.00
2018-07-31T08:02:27.915Z,41.00
2018-07-31T08:04:57.084Z,41.00
2018-07-31T08:07:26.313Z,40.80
2018-07-31T08:09:55.504Z,41.20
2018-07-31T08:12:24.653Z,41.10
2018-07-31T08:14:53.892Z,41.30
2018-07-31T08:17:23.247Z,41.40
2018-07-31T08:19:52.453Z,41.60
2018-07-31T08:22:21.602Z,41.50
2018-07-31T08:24:50.858Z,41.70
2018-07-31T08:27:19.946Z,42.00
2018-07-31T08:29:49.036Z,41.70
2018-07-31T08:32:18.289Z,41.90
2018-07-31T08:34:47.445Z,41.90
2018-07-31T08:37:16.580Z,42.20
2018-07-31T08:39:45.795Z,41.70
2018-07-31T08:42:14.941Z,41.80
2018-07-31T08:44:44.243Z,41.70
2018-07-31T08:47:13.381Z,41.70
2018-07-31T08:49:42.540Z,41.50
2018-07-31T08:52:11.698Z,41.60
2018-07-31T08:54:40.909Z,41.80
2018-07-31T08:57:10.035Z,41.70
2018-07-31T08:59:39.197Z,41.70
2018-07-31T09:02:08.481Z,42.00
2018-07-31T09:04:37.632Z,42.50
2018-07-31T09:07:06.935Z,42.20
2018-07-31T09:09:36.018Z,42.20
2018-07-31T09:12:05.173Z,41.90
2018-07-31T09:14:34.382Z,41.90
2018-07-31T09:17:03.505Z,42.00
2018-07-31T09:19:32.605Z,42.10
2018-07-31T09:22:01.891Z,42.10
2018-07-31T09:24:31.096Z,41.70
2018-07-31T09:27:00.225Z,41.60
2018-07-31T09:29:29.439Z,41.70
2018-07-31T09:31:58.660Z,41.60
2018-07-31T09:34:28.058Z,41.70
2018-07-31T09:36:57.287Z,41.20
2018-07-31T09:39:26.351Z,41.60
2018-07-31T09:41:55.606Z,41.60
2018-07-31T09:44:25.003Z,42.00
2018-07-31T09:46:54.750Z,41.40
2018-07-31T09:49:23.933Z,41.60
2018-07-31T09:51:53.044Z,42.00
2018-07-31T09:54:22.313Z,41.50
2018-07-31T09:56:51.562Z,42.00
2018-07-31T09:59:20.652Z,42.40
2018-07-31T10:01:49.815Z,42.40
2018-07-31T10:04:19.018Z,42.60
2018-07-31T10:06:48.151Z,42.50
2018-07-31T10:09:17.313Z,42.40
2018-07-31T10:11:46.423Z,42.30
2018-07-31T10:14:15.376Z,42.50
2018-07-31T10:16:44.607Z,42.70
2018-07-31T10:19:13.707Z,42.40
2018-07-31T10:21:42.892Z,43.10
2018-07-31T10:24:12.072Z,43.20
2018-07-31T10:26:41.242Z,42.90
2018-07-31T10:29:12.097Z,43.10
2018-07-31T10:31:41.227Z,42.90
2018-07-31T10:34:10.437Z,43.00
2018-07-31T10:36:39.557Z,43.40
2018-07-31T10:39:09.259Z,43.20
2018-07-31T10:41:38.474Z,42.90
2018-07-31T10:44:07.623Z,42.20
2018-07-31T10:46:36.655Z,41.60
2018-07-31T10:49:05.762Z,41.50
2018-07-31T10:51:34.847Z,41.40
2018-07-31T10:54:04.018Z,41.20
2018-07-31T10:56:33.051Z,41.40
2018-07-31T10:59:02.265Z,41.10
2018-07-31T11:01:31.407Z,41.10
2018-07-31T11:04:00.638Z,41.30
2018-07-31T11:06:29.805Z,40.80
2018-07-31T11:08:58.999Z,41.10
2018-07-31T11:11:28.275Z,41.10
2018-07-31T11:13:57.407Z,41.30
2018-07-31T11:16:26.558Z,41.70
2018-07-31T11:18:55.957Z,41.90
2018-07-31T11:21:25.194Z,41.90
2018-07-31T11:23:54.353Z,41.70
2018-07-31T11:26:23.452Z,41.90
2018-07-31T11:28:52.640Z,42.30
2018-07-31T11:31:21.768Z,41.90
2018-07-31T11:33:50.941Z,42.70
2018-07-31T11:36:20.134Z,42.80
2018-07-31T11:38:49.210Z,42.00
2018-07-31T11:41:18.432Z,42.10
2018-07-31T11:43:47.786Z,42.30
2018-07-31T11:46:17.021Z,42.20
2018-07-31T11:48:46.282Z,41.90
2018-07-31T11:51:15.491Z,42.00
2018-07-31T11:53:44.525Z,42.20
2018-07-31T11:56:13.663Z,42.20
2018-07-31T11:58:42.839Z,42.10
2018-07-31T12:01:12.088Z,43.20
2018-07-31T12:03:41.202Z,42.50
2018-07-31T12:06:10.554Z,43.00
2018-07-31T12:08:39.716Z,42.80
2018-07-31T12:11:10.901Z,42.40
2018-07-31T12:13:40.063Z,42.00
2018-07-31T12:16:09.042Z,42.20
2018-07-31T12:18:38.327Z,41.60
2018-07-31T12:21:07.381Z,41.90
2018-07-31T12:23:36.472Z,42.30
2018-07-31T12:26:05.789Z,42.40
2018-07-31T12:28:34.968Z,42.70
2018-07-31T12:31:04.170Z,42.00
2018-07-31T12:33:33.432Z,41.90
2018-07-31T12:36:02.678Z,42.10
2018-07-31T12:38:31.807Z,42.60
2018-07-31T12:41:00.896Z,42.60
2018-07-31T12:43:30.028Z,41.80
2018-07-31T12:45:59.166Z,42.10
2018-07-31T12:48:28.526Z,42.50
2018-07-31T12:50:57.743Z,42.50
2018-07-31T12:53:26.849Z,41.90
2018-07-31T12:55:56.085Z,41.80
2018-07-31T12:58:25.133Z,41.90
2018-07-31T13:00:54.280Z,41.80
2018-07-31T13:03:23.348Z,41.70
2018-07-31T13:05:52.457Z,41.70
2018-07-31T13:08:21.586Z,41.90
2018-07-31T13:10:50.842Z,42.40
2018-07-31T13:13:19.986Z,41.60
2018-07-31T13:15:48.858Z,41.70
2018-07-31T13:18:18.022Z,41.70
2018-07-31T13:20:47.209Z,41.60
2018-07-31T13:23:16.288Z,40.80
2018-07-31T13:25:45.415Z,40.20
2018-07-31T13:28:15.215Z,39.90
2018-07-31T13:30:44.540Z,40.00
2018-07-31T13:33:13.827Z,40.20
2018-07-31T13:35:43.087Z,39.60
2018-07-31T13:38:12.259Z,40.30
2018-07-31T13:40:41.452Z,40.40
2018-07-31T13:43:10.655Z,40.50
2018-07-31T13:45:39.829Z,40.50
2018-07-31T13:48:08.859Z,40.70
2018-07-31T13:50:38.562Z,40.80
2018-07-31T13:53:08.177Z,41.40
2018-07-31T13:55:37.275Z,41.00
2018-07-31T13:58:06.908Z,41.00
2018-07-31T14:00:36.124Z,41.00
2018-07-31T14:03:05.228Z,41.00
2018-07-31T14:05:34.338Z,41.20
2018-07-31T14:08:03.455Z,41.20
2018-07-31T14:10:32.572Z,41.10
2018-07-31T14:13:01.784Z,41.10
2018-07-31T14:15:30.879Z,41.30
2018-07-31T14:17:59.942Z,41.20
2018-07-31T14:20:29.501Z,41.00
2018-07-31T14:22:58.669Z,40.80
2018-07-31T14:25:27.917Z,41.20
2018-07-31T14:27:57.292Z,41.60
2018-07-31T14:30:26.667Z,41.60
2018-07-31T14:32:55.925Z,41.70
2018-07-31T14:35:25.162Z,41.40
2018-07-31T14:37:54.354Z,41.80
2018-07-31T14:40:23.470Z,41.90
2018-07-31T14:42:52.634Z,41.70
2018-07-31T14:45:21.843Z,41.80
2018-07-31T14:47:50.956Z,41.70
2018-07-31T14:50:20.116Z,42.30
2018-07-31T14:52:49.275Z,42.10
2018-07-31T14:55:18.624Z,41.90
2018-07-31T14:57:47.850Z,42.00
2018-07-31T15:00:16.971Z,41.90
2018-07-31T15:02:46.171Z,42.50
2018-07-31T15:05:15.328Z,42.30
2018-07-31T15:07:44.732Z,42.40
2018-07-31T15:10:13.678Z,42.50
2018-07-31T15:12:42.806Z,42.40
2018-07-31T15:15:11.920Z,42.80
2018-07-31T15:17:41.161Z,42.00
2018-07-31T15:20:10.405Z,42.00
2018-07-31T15:22:41.389Z,42.10
2018-07-31T15:25:10.501Z,41.90
2018-07-31T15:27:39.669Z,41.90
2018-07-31T15:30:08.885Z,41.90
2018-07-31T15:32:38.120Z,41.80
2018-07-31T15:35:07.508Z,42.20
2018-07-31T15:37:36.607Z,42.00
2018-07-31T15:40:05.947Z,42.30
2018-07-31T15:42:35.031Z,42.30
2018-07-31T15:45:04.150Z,41.90
2018-07-31T15:47:33.199Z,42.20
2018-07-31T15:50:02.363Z,42.00
2018-07-31T15:52:31.667Z,42.30
2018-07-31T15:55:00.706Z,42.00
2018-07-31T15:57:29.794Z,41.90
2018-07-31T15:59:58.934Z,42.10
2018-07-31T16:02:28.313Z,42.20
2018-07-31T16:04:57.440Z,42.10
2018-07-31T16:07:26.707Z,41.90
2018-07-31T16:09:55.919Z,41.90
2018-07-31T16:12:25.159Z,42.20
2018-07-31T16:14:54.355Z,42.50
2018-07-31T16:17:23.679Z,43.70
2018-07-31T16:19:52.815Z,45.50
2018-07-31T16:22:21.947Z,46.50
2018-07-31T16:24:51.429Z,46.00
2018-07-31T16:27:20.638Z,46.60
2018-07-31T16:29:49.757Z,46.50
2018-07-31T16:32:18.986Z,46.80
2018-07-31T16:34:48.261Z,46.00
2018-07-31T16:37:17.428Z,45.80
2018-07-31T16:39:46.615Z,45.30
2018-07-31T16:42:15.859Z,45.80
2018-07-31T16:44:45.089Z,45.00
2018-07-31T16:47:14.227Z,45.00
2018-07-31T16:49:43.243Z,45.00
2018-07-31T16:52:12.409Z,45.00
2018-07-31T16:54:41.681Z,45.00
2018-07-31T16:57:10.908Z,44.90
2018-07-31T16:59:40.268Z,44.80
2018-07-31T17:02:09.673Z,44.60
2018-07-31T17:04:38.988Z,44.60
2018-07-31T17:07:08.185Z,44.50
2018-07-31T17:09:37.860Z,44.60
2018-07-31T17:12:06.989Z,44.50
2018-07-31T17:14:36.123Z,44.50
2018-07-31T17:17:05.450Z,44.40
2018-07-31T17:19:34.621Z,44.20
2018-07-31T17:22:03.864Z,44.40
2018-07-31T17:24:32.990Z,44.40
2018-07-31T17:27:02.148Z,44.30
2018-07-31T17:29:31.489Z,44.50
2018-07-31T17:32:00.709Z,44.60
2018-07-31T17:34:29.927Z,44.60
2018-07-31T17:36:59.238Z,44.60
2018-07-31T17:39:28.346Z,44.90
2018-07-31T17:41:57.607Z,44.70
2018-07-31T17:44:26.790Z,44.80
2018-07-31T17:46:56.080Z,44.80
2018-07-31T17:49:25.305Z,44.70
2018-07-31T17:51:54.469Z,44.70
2018-07-31T17:54:23.855Z,44.70
2018-07-31T17:56:53.158Z,45.30
2018-07-31T17:59:22.521Z,44.60
2018-07-31T18:01:51.599Z,44.80
2018-07-31T18:04:20.967Z,44.70
2018-07-31T18:06:50.227Z,44.70
2018-07-31T18:09:19.608Z,44.70
2018-07-31T18:11:48.697Z,44.60
2018-07-31T18:14:17.860Z,44.70
2018-07-31T18:16:47.071Z,44.70
2018-07-31T18:19:16.290Z,44.60
2018-07-31T18:21:45.448Z,44.60
2018-07-31T18:24:14.783Z,44.60
2018-07-31T18:26:43.872Z,44.70
2018-07-31T18:29:13.139Z,44.70
2018-07-31T18:31:42.247Z,44.60
2018-07-31T18:34:11.451Z,44.60
2018-07-31T18:36:40.505Z,44.60
2018-07-31T18:39:12.132Z,44.60
2018-07-31T18:41:41.894Z,44.60
2018-07-31T18:44:11.690Z,44.60
2018-07-31T18:46:42.257Z,44.50
2018-07-31T18:49:11.487Z,44.60
2018-07-31T18:51:40.585Z,44.60
2018-07-31T18:54:09.837Z,44.60
2018-07-31T18:56:38.991Z,45.20
2018-07-31T18:59:08.331Z,44.50
2018-07-31T19:01:37.674Z,44.50
2018-07-31T19:04:07.254Z,44.60
2018-07-31T19:06:36.467Z,44.60
2018-07-31T19:09:10.507Z,44.60
2018-07-31T19:11:40.248Z,44.60
2018-07-31T19:14:09.616Z,44.50
2018-07-31T19:16:38.905Z,44.50
2018-07-31T19:19:08.001Z,44.50
2018-07-31T19:21:37.411Z,44.60
2018-07-31T19:24:06.772Z,44.60
2018-07-31T19:26:36.102Z,45.00
2018-07-31T19:29:05.890Z,44.50
2018-07-31T19:31:35.086Z,44.50
2018-07-31T19:34:04.220Z,44.60
2018-07-31T19:36:33.491Z,44.50
2018-07-31T19:39:02.781Z,44.50
2018-07-31T19:41:32.011Z,44.50
2018-07-31T19:44:01.347Z,44.60
2018-07-31T19:46:30.456Z,44.50
2018-07-31T19:48:59.620Z,44.50
2018-07-31T19:51:28.770Z,44.50
2018-07-31T19:53:58.147Z,44.50
2018-07-31T19:56:27.308Z,44.40
2018-07-31T19:58:56.448Z,44.50
2018-07-31T20:01:25.589Z,44.50
2018-07-31T20:03:54.793Z,44.50
2018-07-31T20:06:24.007Z,44.50
2018-07-31T20:08:53.562Z,44.50
2018-07-31T20:11:22.700Z,44.50
2018-07-31T20:13:51.917Z,44.50
2018-07-31T20:16:21.074Z,44.50
2018-07-31T20:18:50.189Z,44.40
2018-07-31T20:21:19.357Z,44.50
2018-07-31T20:23:48.722Z,44.50
2018-07-31T20:26:17.846Z,44.50
2018-07-31T20:28:47.003Z,45.10
2018-07-31T20:31:16.673Z,44.50
2018-07-31T20:33:45.973Z,44.50
2018-07-31T20:36:15.025Z,44.50
2018-07-31T20:38:44.258Z,44.40
2018-07-31T20:41:13.805Z,44.50
2018-07-31T20:43:42.869Z,44.50
2018-07-31T20:46:12.019Z,44.40
2018-07-31T20:48:42.206Z,44.40
2018-07-31T20:51:11.331Z,44.50
2018-07-31T20:53:40.416Z,44.50
2018-07-31T20:56:11.219Z,44.50
2018-07-31T20:58:40.415Z,44.50
2018-07-31T21:01:09.540Z,44.50
2018-07-31T21:03:38.813Z,44.50
2018-07-31T21:06:07.924Z,44.40
2018-07-31T21:08:37.055Z,44.50
2018-07-31T21:11:06.157Z,45.10
2018-07-31T21:13:35.391Z,44.40
2018-07-31T21:16:04.822Z,44.50
2018-07-31T21:18:34.425Z,44.60
2018-07-31T21:21:03.509Z,45.10
2018-07-31T21:23:32.833Z,44.50
2018-07-31T21:26:01.998Z,44.50
2018-07-31T21:28:31.232Z,44.50
2018-07-31T21:31:00.562Z,44.40
2018-07-31T21:33:29.772Z,44.40
2018-07-31T21:35:58.945Z,44.50
2018-07-31T21:38:28.117Z,44.40
2018-07-31T21:40:57.344Z,44.50
2018-07-31T21:43:26.519Z,44.40
2018-07-31T21:45:55.695Z,44.50
2018-07-31T21:48:24.830Z,44.40
2018-07-31T21:50:54.024Z,44.40
2018-07-31T21:53:23.292Z,44.40
2018-07-31T21:55:52.480Z,44.50
2018-07-31T21:58:21.793Z,44.50
2018-07-31T22:00:55.149Z,44.50
2018-07-31T22:03:24.325Z,44.30
2018-07-31T22:05:53.501Z,44.40
2018-07-31T22:08:22.658Z,44.40
2018-07-31T22:10:51.757Z,44.40
2018-07-31T22:13:21.001Z,44.40
2018-07-31T22:15:50.120Z,44.40
2018-07-31T22:18:19.590Z,44.50
2018-07-31T22:20:48.812Z,44.40
2018-07-31T22:23:18.533Z,44.40
2018-07-31T22:25:47.683Z,44.30
2018-07-31T22:28:16.801Z,44.40
2018-07-31T22:30:45.917Z,44.40
2018-07-31T22:33:15.265Z,44.40
2018-07-31T22:35:44.327Z,44.50
2018-07-31T22:38:13.490Z,44.40
2018-07-31T22:40:42.718Z,44.40
2018-07-31T22:43:11.929Z,44.40
2018-07-31T22:45:41.146Z,44.50
2018-07-31T22:48:10.245Z,44.30
2018-07-31T22:50:39.461Z,44.40
2018-07-31T22:53:08.648Z,44.40
2018-07-31T22:55:37.880Z,44.40
2018-07-31T22:58:07.081Z,44.40
2018-07-31T23:00:36.124Z,44.40
2018-07-31T23:03:05.281Z,44.40
2018-07-31T23:05:34.502Z,44.40
2018-07-31T23:08:03.795Z,44.40
2018-07-31T23:10:33.049Z,44.40
2018-07-31T23:13:02.201Z,44.30
2018-07-31T23:15:31.451Z,44.40
2018-07-31T23:18:00.558Z,44.40
2018-07-31T23:20:29.834Z,44.40
2018-07-31T23:22:59.016Z,44.40
2018-07-31T23:25:28.305Z,44.40
2018-07-31T23:27:57.388Z,44.40
2018-07-31T23:30:26.746Z,44.40
2018-07-31T23:32:56.025Z,44.30
2018-07-31T23:35:25.173Z,44.40
2018-07-31T23:37:54.236Z,44.40
2018-07-31T23:40:23.523Z,44.40
2018-07-31T23:42:52.891Z,44.30
2018-07-31T23:45:22.081Z,44.30
2018-07-31T23:47:51.320Z,45.00
2018-07-31T23:50:20.484Z,44.40
2018-07-31T23:52:49.734Z,44.30
2018-07-31T23:55:18.900Z,44.50
2018-07-31T23:57:48.159Z,44.40
